Portada
METAR-TAF:

METAR-TAF

Aeropuertos :

Ciudad del Cabo, Sudáfrica

Aeropuerto Internacional de la Ciudad del Cabo

latitud: 33-59S, longitud: 018-36E, altitud: 42 m

Observación

El informe se hizo hace 49 minutos, a las 05:00 UTC
Viento 6 kt del sureste
Temperatura 9°C
Humedad 76%
Presión 1027 hPa
Visibilidad 10 km o más
Escasas nubes a una altura de 4000 ft

METAR: FACT 170500Z 13006KT 9999 FEW040 09/05 Q1027 NOSIG

Hora: 07:49 (05:49 UTC)

Pronóstico

El informe se hizo hace 1 hora y 49 minutos, a las 04:00 UTC
Pronóstico válido del 17 a las 06 UTC al 18 a las 12 UTC
Viento 5 kt del sur-sureste
Visibilidad 10 km o más
Escasas nubes a una altura de 3000 ft
Probabilidad 30% :
Temporalmente
del 18 a las 02 UTC al 18 a las 06 UTC
Visibilidad: 1000 m
niebla en bancos

TAF: FACT 170400Z 1706/1812 15005KT 9999 FEW030 PROB30 TEMPO 1802/1806 1000 BCFG TX19/1712Z TN03/1805Z

Observaciones y pronósticos meteorológicos de más de 4000 aeropuertos (mensajes METAR y TAF).

Los puntos amarillos y rojos representan las estaciones disponibles.

Ponga el ratón en el punto deseado para ver el nombre de la estación.

Haga clic para ver las observaciones y los pronósticos meteorológicos.

Para cambiar el mapa : haga clic en los botones verdes con una cruz de color negro para hacer un zoom, en el botón verde con un guión para alejar o en las flechas verdes para mapas adyacentes.


METAR-TAF: